Time;durP1;ratioP1;P1;durP2;ratioP2;P2;SDS_P1;SDS_P2;PMS_P1;PMS_P2;Temp;Humidity;BMP_temperature;BMP_pressure;BME280_temperature;BME280_humidity;BME280_pressure;Samples;Min_cycle;Max_cycle;Signal;HPM_P1;HPM_P2
2021/10/30 00:02:06;;;;;;;60.40;25.03;;;8.00;99.90;;;;;;5033187;28;20478;-51
2021/10/30 00:04:33;;;;;;;63.70;25.77;;;7.90;99.90;;;;;;5033746;28;20879;-51
2021/10/30 00:07:00;;;;;;;59.93;25.40;;;8.00;99.90;;;;;;5033650;28;20935;-52
2021/10/30 00:09:28;;;;;;;58.40;24.70;;;8.00;99.90;;;;;;5033037;28;21006;-51
2021/10/30 00:11:55;;;;;;;72.10;27.60;;;8.00;99.90;;;;;;5038947;28;20472;-51
2021/10/30 00:14:22;;;;;;;67.20;26.00;;;8.00;99.90;;;;;;5038882;28;20518;-51
2021/10/30 00:16:52;;;;;;;65.73;26.47;;;8.00;99.90;;;;;;5032935;28;20516;-51
2021/10/30 00:19:21;;;;;;;54.87;24.57;;;8.00;99.90;;;;;;5040882;28;20502;-51
2021/10/30 00:21:52;;;;;;;62.90;25.87;;;7.90;99.90;;;;;;5033015;28;20472;-52
2021/10/30 00:24:19;;;;;;;59.30;23.93;;;7.70;99.90;;;;;;5032896;28;20453;-52
2021/10/30 00:26:47;;;;;;;66.47;26.20;;;7.90;99.90;;;;;;5043061;28;20457;-52
2021/10/30 00:29:14;;;;;;;60.00;26.60;;;7.80;99.90;;;;;;5032990;28;20456;-51
2021/10/30 00:31:41;;;;;;;61.20;25.67;;;7.60;99.90;;;;;;5032669;28;20976;-51
2021/10/30 00:34:08;;;;;;;62.37;24.23;;;7.70;99.90;;;;;;5032721;28;20455;-51
2021/10/30 00:36:36;;;;;;;65.33;25.03;;;7.60;99.90;;;;;;5034752;28;20889;-53
2021/10/30 00:39:03;;;;;;;58.60;25.60;;;7.60;99.90;;;;;;5033064;28;20499;-51
2021/10/30 00:41:31;;;;;;;65.30;24.40;;;7.60;99.90;;;;;;5032439;28;21047;-52
2021/10/30 00:44:06;;;;;;;65.27;26.43;;;7.60;99.90;;;;;;5032798;28;20456;-51
2021/10/30 00:46:33;;;;;;;85.77;27.70;;;7.60;99.90;;;;;;5032692;28;20448;-52
2021/10/30 00:49:00;;;;;;;68.07;26.93;;;7.60;99.90;;;;;;5047071;28;20506;-51
2021/10/30 00:51:29;;;;;;;61.30;25.93;;;7.50;99.90;;;;;;5032133;28;20453;-52
2021/10/30 00:53:58;;;;;;;77.50;28.10;;;7.50;99.90;;;;;;5032369;28;20444;-51
2021/10/30 00:56:27;;;;;;;65.43;26.90;;;7.50;99.90;;;;;;5012788;28;21008;-52
2021/10/30 00:58:55;;;;;;;67.50;27.87;;;7.50;99.90;;;;;;5015271;28;20453;-52
2021/10/30 01:01:22;;;;;;;72.97;27.27;;;7.60;99.90;;;;;;5052105;28;20487;-51
2021/10/30 01:03:51;;;;;;;65.10;26.33;;;7.70;99.90;;;;;;5041601;28;20451;-51
2021/10/30 01:06:18;;;;;;;58.37;24.20;;;7.70;99.90;;;;;;5031940;28;20493;-52
2021/10/30 01:08:46;;;;;;;68.33;26.53;;;7.70;99.90;;;;;;5031563;28;20890;-54
2021/10/30 01:11:15;;;;;;;61.90;26.10;;;7.80;99.90;;;;;;5052056;28;20447;-51
2021/10/30 01:13:43;;;;;;;68.67;27.03;;;7.70;99.90;;;;;;5052327;28;21024;-52
2021/10/30 01:16:11;;;;;;;63.07;26.17;;;7.60;99.90;;;;;;5052314;28;20501;-52
2021/10/30 01:18:38;;;;;;;65.03;25.27;;;7.60;99.90;;;;;;5052217;28;20448;-52
2021/10/30 01:21:07;;;;;;;66.87;26.40;;;7.50;99.90;;;;;;5051384;28;20573;-53
2021/10/30 01:23:34;;;;;;;70.10;25.70;;;7.50;99.90;;;;;;5037083;28;21075;-52
2021/10/30 01:26:03;;;;;;;70.00;26.60;;;7.40;99.90;;;;;;5032118;28;20452;-52
2021/10/30 01:28:34;;;;;;;72.67;25.87;;;7.50;99.90;;;;;;5031828;28;20587;-53
2021/10/30 01:31:02;;;;;;;64.47;26.07;;;7.30;99.90;;;;;;5031882;28;20526;-52
2021/10/30 01:33:29;;;;;;;69.97;26.10;;;7.20;99.90;;;;;;5032482;28;20546;-51
2021/10/30 01:35:55;;;;;;;64.53;26.17;;;7.10;99.90;;;;;;5031686;28;20510;-53
2021/10/30 01:38:24;;;;;;;61.87;25.80;;;7.20;99.90;;;;;;5031889;28;20452;-51
2021/10/30 01:40:52;;;;;;;68.53;26.70;;;7.30;99.90;;;;;;5031552;28;20483;-51
2021/10/30 01:43:19;;;;;;;65.30;25.10;;;7.30;99.90;;;;;;5031565;28;21057;-51
2021/10/30 01:45:47;;;;;;;57.63;23.50;;;7.40;99.90;;;;;;5037393;28;20448;-52
2021/10/30 01:48:14;;;;;;;59.40;25.23;;;7.40;99.90;;;;;;5051608;28;21125;-51
2021/10/30 01:50:42;;;;;;;70.83;28.03;;;7.50;99.90;;;;;;5038837;28;20515;-51
2021/10/30 01:53:10;;;;;;;65.53;26.20;;;7.30;99.90;;;;;;5068786;22;20503;-55
2021/10/30 01:55:40;;;;;;;67.87;25.33;;;7.10;99.90;;;;;;5053958;28;20879;-55
2021/10/30 01:58:08;;;;;;;68.03;27.47;;;7.20;99.90;;;;;;5062087;28;20589;-54
2021/10/30 02:00:36;;;;;;;69.67;27.20;;;7.30;99.90;;;;;;5051495;28;20491;-55
2021/10/30 02:03:03;;;;;;;73.33;27.50;;;7.20;99.90;;;;;;5051654;28;20521;-54
2021/10/30 02:05:30;;;;;;;65.43;26.70;;;7.20;99.90;;;;;;5050989;28;20459;-55
2021/10/30 02:07:58;;;;;;;63.47;24.57;;;7.30;99.90;;;;;;5051414;28;20846;-55
2021/10/30 02:10:25;;;;;;;61.70;23.63;;;7.10;99.90;;;;;;5051103;28;20444;-55
2021/10/30 02:12:53;;;;;;;62.90;24.63;;;7.20;99.90;;;;;;5050955;28;21074;-55
2021/10/30 02:15:20;;;;;;;63.43;25.13;;;7.20;99.90;;;;;;5051740;28;20448;-55
2021/10/30 02:17:47;;;;;;;59.30;25.20;;;7.30;99.90;;;;;;5051393;28;20522;-54
2021/10/30 02:20:14;;;;;;;58.10;23.10;;;7.20;99.90;;;;;;5051319;28;20481;-54
2021/10/30 02:22:41;;;;;;;61.73;25.63;;;7.10;99.90;;;;;;5050421;28;20821;-55
2021/10/30 02:25:10;;;;;;;65.93;24.57;;;7.10;99.90;;;;;;5051266;28;20478;-55
2021/10/30 02:27:38;;;;;;;66.50;26.00;;;7.10;99.90;;;;;;5050973;28;20509;-55
2021/10/30 02:30:07;;;;;;;59.07;23.03;;;7.20;99.90;;;;;;5051433;28;20513;-55
2021/10/30 02:32:35;;;;;;;53.27;23.00;;;7.10;99.90;;;;;;5050969;28;20691;-54
2021/10/30 02:35:02;;;;;;;56.43;22.27;;;7.10;99.90;;;;;;5050944;28;21030;-54
2021/10/30 02:37:29;;;;;;;55.40;21.37;;;7.10;99.90;;;;;;5051340;28;20497;-55
2021/10/30 02:39:56;;;;;;;57.90;21.63;;;7.00;99.90;;;;;;5051014;28;20524;-55
2021/10/30 02:42:23;;;;;;;53.73;22.07;;;7.00;99.90;;;;;;5050814;28;20502;-55
2021/10/30 02:44:50;;;;;;;54.40;19.80;;;6.90;99.90;;;;;;5051026;28;20455;-55
2021/10/30 02:47:19;;;;;;;54.27;22.20;;;6.80;99.90;;;;;;5053154;28;20455;-56
2021/10/30 02:49:46;;;;;;;48.87;20.83;;;6.70;99.90;;;;;;5054952;28;20512;-55
2021/10/30 02:52:12;;;;;;;53.13;20.60;;;6.70;99.90;;;;;;5054575;28;20528;-55
2021/10/30 02:54:39;;;;;;;43.83;18.77;;;6.70;99.90;;;;;;5054708;28;20519;-55
2021/10/30 02:57:07;;;;;;;47.93;19.00;;;6.70;99.90;;;;;;5054985;28;20446;-54
2021/10/30 02:59:34;;;;;;;42.73;17.83;;;6.70;99.90;;;;;;5053969;28;20517;-55
2021/10/30 03:02:01;;;;;;;41.90;17.60;;;6.60;99.90;;;;;;5054273;28;20487;-55
2021/10/30 03:04:29;;;;;;;43.60;18.67;;;6.60;99.90;;;;;;5054506;28;20447;-55
2021/10/30 03:06:56;;;;;;;46.40;18.40;;;6.50;99.90;;;;;;5034946;28;20456;-54
2021/10/30 03:09:23;;;;;;;40.93;18.20;;;6.60;99.90;;;;;;5040428;28;20503;-55
2021/10/30 03:11:50;;;;;;;46.33;19.63;;;6.50;99.90;;;;;;5053656;28;20440;-55
2021/10/30 03:14:17;;;;;;;46.53;18.50;;;6.60;99.90;;;;;;5054505;28;20451;-54
2021/10/30 03:16:44;;;;;;;48.70;17.87;;;6.60;99.90;;;;;;5054420;28;20447;-55
2021/10/30 03:19:11;;;;;;;41.83;18.30;;;6.70;99.90;;;;;;5053850;28;20494;-54
2021/10/30 03:21:39;;;;;;;52.33;19.63;;;6.80;99.90;;;;;;5053697;28;20481;-55
2021/10/30 03:24:07;;;;;;;46.03;19.37;;;7.00;99.90;;;;;;5052995;28;20960;-55
2021/10/30 03:26:34;;;;;;;47.47;19.37;;;6.90;99.90;;;;;;5054002;28;20476;-55
2021/10/30 03:29:02;;;;;;;45.27;18.40;;;6.80;99.90;;;;;;5054376;28;21010;-54
2021/10/30 03:31:29;;;;;;;50.40;20.37;;;6.70;99.90;;;;;;5054000;28;20444;-54
2021/10/30 03:33:56;;;;;;;45.73;18.87;;;6.70;99.90;;;;;;5053552;28;20468;-54
2021/10/30 03:36:23;;;;;;;41.33;17.87;;;6.70;99.90;;;;;;5053854;28;20444;-55
2021/10/30 03:38:51;;;;;;;47.37;19.40;;;6.60;99.90;;;;;;5054181;28;20509;-55
2021/10/30 03:41:18;;;;;;;50.03;19.77;;;6.60;99.90;;;;;;5053115;28;21063;-55
2021/10/30 03:43:45;;;;;;;44.53;19.40;;;6.40;99.90;;;;;;5054028;28;20472;-55
2021/10/30 03:46:12;;;;;;;56.13;21.23;;;6.20;99.90;;;;;;5053701;28;20448;-55
2021/10/30 03:48:39;;;;;;;49.47;19.70;;;6.20;99.90;;;;;;5054018;28;20451;-56
2021/10/30 03:51:06;;;;;;;53.53;19.73;;;6.20;99.90;;;;;;5053522;28;20497;-55
2021/10/30 03:53:33;;;;;;;56.60;21.80;;;6.10;99.90;;;;;;5053085;28;20556;-55
2021/10/30 03:56:01;;;;;;;48.30;21.67;;;6.20;99.90;;;;;;5053117;28;20463;-56
2021/10/30 03:58:29;;;;;;;43.67;18.50;;;6.00;99.90;;;;;;5038139;28;20871;-54
2021/10/30 04:00:56;;;;;;;40.73;17.13;;;6.00;99.90;;;;;;5052773;28;20487;-54
2021/10/30 04:03:23;;;;;;;52.53;17.80;;;5.90;99.90;;;;;;5053370;28;20467;-55
2021/10/30 04:05:50;;;;;;;42.07;17.50;;;5.90;99.90;;;;;;5052339;28;20512;-55
2021/10/30 04:08:19;;;;;;;37.13;16.20;;;5.80;99.90;;;;;;5050957;28;20477;-56
2021/10/30 04:10:46;;;;;;;34.40;15.73;;;5.90;99.90;;;;;;5051551;28;20452;-55
2021/10/30 04:13:15;;;;;;;34.60;14.67;;;6.00;99.90;;;;;;5052816;28;20472;-55
2021/10/30 04:15:42;;;;;;;31.80;15.20;;;6.10;99.90;;;;;;5051078;28;21084;-55
2021/10/30 04:18:09;;;;;;;31.37;15.20;;;6.20;99.90;;;;;;5052843;28;20448;-55
2021/10/30 04:20:36;;;;;;;41.70;16.57;;;6.10;99.90;;;;;;5052507;28;20532;-55
2021/10/30 04:23:03;;;;;;;42.67;16.93;;;6.10;99.90;;;;;;5052900;28;20472;-55
2021/10/30 04:25:30;;;;;;;30.90;15.10;;;6.10;99.90;;;;;;5043653;28;20449;-54
2021/10/30 04:27:58;;;;;;;40.17;16.33;;;6.20;99.90;;;;;;5033040;28;20861;-55
2021/10/30 04:30:27;;;;;;;44.07;17.17;;;6.30;99.90;;;;;;5052587;28;20447;-54
2021/10/30 04:32:54;;;;;;;37.43;16.50;;;6.30;99.90;;;;;;5053083;28;20868;-55
2021/10/30 04:35:22;;;;;;;39.20;16.47;;;6.20;99.90;;;;;;5052956;28;20463;-56
2021/10/30 04:37:49;;;;;;;38.10;16.00;;;6.10;99.90;;;;;;5046924;28;20960;-55
2021/10/30 04:40:17;;;;;;;43.17;17.20;;;6.20;99.90;;;;;;5049002;28;20443;-55
2021/10/30 04:42:44;;;;;;;39.90;16.90;;;6.10;99.90;;;;;;5050432;28;20505;-55
2021/10/30 04:45:11;;;;;;;39.77;16.70;;;6.10;99.90;;;;;;5051506;28;20547;-55
2021/10/30 04:47:40;;;;;;;41.53;16.10;;;6.10;99.90;;;;;;5052132;28;20452;-55
2021/10/30 04:50:07;;;;;;;37.33;15.70;;;6.10;99.90;;;;;;5044795;28;21015;-55
2021/10/30 04:52:34;;;;;;;38.23;17.17;;;6.10;99.90;;;;;;5051873;28;20494;-55
2021/10/30 04:55:01;;;;;;;48.37;16.30;;;6.30;99.90;;;;;;5052138;28;20444;-54
2021/10/30 04:57:28;;;;;;;44.13;17.47;;;6.30;99.90;;;;;;5044588;28;20472;-55
2021/10/30 04:59:55;;;;;;;38.87;16.10;;;6.20;99.90;;;;;;5052403;28;20439;-55
2021/10/30 05:02:22;;;;;;;42.97;17.50;;;6.20;99.90;;;;;;5050364;28;20530;-55
2021/10/30 05:04:50;;;;;;;56.50;18.90;;;6.20;99.90;;;;;;5050986;28;20572;-55
2021/10/30 05:07:17;;;;;;;43.40;18.37;;;6.10;99.90;;;;;;5046926;28;20456;-54
2021/10/30 05:09:44;;;;;;;50.00;17.80;;;6.20;99.90;;;;;;5051919;28;20881;-55
2021/10/30 05:12:12;;;;;;;59.73;18.53;;;6.20;99.90;;;;;;5051381;28;20541;-55
2021/10/30 05:14:39;;;;;;;42.60;16.70;;;5.90;99.90;;;;;;5036174;28;20457;-55
2021/10/30 05:17:06;;;;;;;34.00;15.70;;;5.90;99.90;;;;;;5052134;28;20452;-55
2021/10/30 05:19:33;;;;;;;45.77;18.27;;;6.00;99.90;;;;;;5052100;28;20441;-54
2021/10/30 05:22:02;;;;;;;40.17;15.57;;;6.00;99.90;;;;;;5051019;28;21033;-55
2021/10/30 05:24:29;;;;;;;40.53;16.43;;;5.90;99.90;;;;;;5051378;28;20542;-54
2021/10/30 05:26:56;;;;;;;44.80;16.13;;;5.90;99.90;;;;;;5048127;28;20487;-55
2021/10/30 05:29:23;;;;;;;49.63;18.00;;;5.80;99.90;;;;;;5049980;28;20495;-54
2021/10/30 05:31:50;;;;;;;34.50;15.73;;;5.90;99.90;;;;;;5049721;28;20533;-54
2021/10/30 05:34:17;;;;;;;34.80;16.37;;;5.90;99.90;;;;;;5050019;28;20447;-55
2021/10/30 05:36:44;;;;;;;44.73;15.87;;;5.80;99.90;;;;;;5049916;28;20564;-54
2021/10/30 05:39:15;;;;;;;40.27;15.97;;;5.80;99.90;;;;;;5049861;28;20444;-55
2021/10/30 05:41:43;;;;;;;39.83;16.50;;;5.60;99.90;;;;;;5050354;28;20594;-55
2021/10/30 05:44:11;;;;;;;39.73;16.57;;;5.60;99.90;;;;;;5051492;28;20451;-55
2021/10/30 05:46:40;;;;;;;44.87;16.67;;;5.70;99.90;;;;;;5051708;28;20476;-55
2021/10/30 05:49:09;;;;;;;42.57;16.90;;;5.70;99.90;;;;;;5051480;28;20452;-55
2021/10/30 05:51:39;;;;;;;43.10;16.70;;;5.70;99.90;;;;;;5051291;28;20452;-54
2021/10/30 05:54:06;;;;;;;39.93;16.20;;;5.70;99.90;;;;;;5051488;28;20452;-55
2021/10/30 05:56:34;;;;;;;37.10;15.87;;;5.70;99.90;;;;;;5051419;28;20453;-56
2021/10/30 05:59:01;;;;;;;31.33;15.30;;;5.70;99.90;;;;;;5050548;28;20452;-55
2021/10/30 06:01:28;;;;;;;33.20;15.23;;;5.60;99.90;;;;;;5051099;28;20475;-55
2021/10/30 06:03:56;;;;;;;29.70;14.33;;;5.70;99.90;;;;;;5049241;28;21301;-55
2021/10/30 06:06:22;;;;;;;26.10;13.90;;;5.60;99.90;;;;;;5050648;28;20451;-54
2021/10/30 06:08:49;;;;;;;33.47;14.77;;;5.70;99.90;;;;;;5050588;28;20949;-54
2021/10/30 06:11:17;;;;;;;36.87;15.00;;;5.60;99.90;;;;;;5051307;28;20490;-55
2021/10/30 06:13:45;;;;;;;34.00;15.80;;;5.30;99.90;;;;;;5051049;28;20468;-54
2021/10/30 06:16:13;;;;;;;35.40;14.17;;;5.30;99.90;;;;;;5051196;28;20513;-55
2021/10/30 06:18:40;;;;;;;30.40;14.47;;;5.30;99.90;;;;;;5049785;28;20892;-55
2021/10/30 06:21:08;;;;;;;31.70;15.37;;;5.10;99.90;;;;;;5039162;28;20476;-54
2021/10/30 06:23:36;;;;;;;25.63;12.93;;;5.10;99.90;;;;;;5038538;28;20473;-55
2021/10/30 06:26:03;;;;;;;26.60;13.10;;;5.20;99.90;;;;;;5055425;28;20490;-53
2021/10/30 06:28:30;;;;;;;27.30;13.63;;;5.30;99.90;;;;;;5054941;28;20455;-54
2021/10/30 06:30:59;;;;;;;28.43;13.80;;;5.20;99.90;;;;;;5052175;28;20860;-55
2021/10/30 06:33:26;;;;;;;29.30;15.17;;;5.30;99.90;;;;;;5040225;28;20978;-55
2021/10/30 06:35:53;;;;;;;27.20;14.70;;;5.30;99.90;;;;;;5049354;28;20497;-55
2021/10/30 06:38:20;;;;;;;25.23;13.90;;;5.40;99.90;;;;;;5039780;28;20881;-55
2021/10/30 06:40:46;;;;;;;24.10;12.97;;;5.40;99.90;;;;;;5039300;28;20455;-55
2021/10/30 06:43:13;;;;;;;27.43;13.83;;;5.30;99.90;;;;;;5046513;28;20488;-56
2021/10/30 06:45:40;;;;;;;42.60;20.80;;;5.10;99.90;;;;;;5046716;28;20447;-54
2021/10/30 06:48:09;;;;;;;32.63;17.07;;;5.30;99.90;;;;;;5054474;28;20451;-54
2021/10/30 06:50:36;;;;;;;29.70;16.27;;;5.30;99.90;;;;;;5043841;28;20451;-55
2021/10/30 06:53:03;;;;;;;35.93;17.30;;;5.30;99.90;;;;;;5049015;28;20977;-54
2021/10/30 06:55:30;;;;;;;36.03;18.23;;;5.30;99.90;;;;;;5049605;28;20596;-55
2021/10/30 06:57:58;;;;;;;26.30;13.67;;;5.60;99.90;;;;;;5043907;28;20448;-54
2021/10/30 07:00:25;;;;;;;32.27;16.03;;;5.60;99.90;;;;;;5053509;28;20460;-55
2021/10/30 07:02:52;;;;;;;30.87;16.10;;;5.50;99.90;;;;;;5053148;28;20491;-54
2021/10/30 07:05:22;;;;;;;29.57;15.50;;;5.60;99.90;;;;;;5039439;28;20878;-54
2021/10/30 07:07:49;;;;;;;26.13;15.40;;;5.50;99.90;;;;;;5046558;28;20453;-55
2021/10/30 07:10:17;;;;;;;27.60;14.77;;;5.50;99.90;;;;;;5047958;28;20510;-56
2021/10/30 07:12:44;;;;;;;26.73;15.00;;;5.70;99.90;;;;;;5050081;28;20467;-54
2021/10/30 07:15:14;;;;;;;27.47;13.60;;;5.90;99.90;;;;;;5054678;28;20447;-55
2021/10/30 07:17:41;;;;;;;29.77;14.17;;;6.20;99.90;;;;;;5054167;28;20940;-55
2021/10/30 07:20:10;;;;;;;27.70;14.67;;;6.00;99.90;;;;;;5052966;28;20809;-56
2021/10/30 07:22:43;;;;;;;27.20;15.40;;;5.90;99.90;;;;;;5052762;28;20487;-55
2021/10/30 07:25:10;;;;;;;27.30;14.50;;;6.00;99.90;;;;;;5037719;28;20464;-55
2021/10/30 07:27:37;;;;;;;26.27;15.00;;;6.10;99.90;;;;;;5044555;28;20515;-54
2021/10/30 07:30:05;;;;;;;32.23;16.87;;;6.50;99.90;;;;;;5045243;28;20444;-55
2021/10/30 07:32:32;;;;;;;25.13;14.73;;;6.90;99.90;;;;;;5047575;28;20905;-56
2021/10/30 07:35:00;;;;;;;26.80;14.70;;;7.30;99.90;;;;;;5048502;28;20456;-56
2021/10/30 07:37:27;;;;;;;24.17;13.13;;;7.60;99.90;;;;;;5043257;28;20691;-54
2021/10/30 07:39:55;;;;;;;22.23;14.10;;;7.90;99.90;;;;;;5043451;28;20468;-56
2021/10/30 07:42:22;;;;;;;19.57;11.33;;;8.10;99.90;;;;;;5048595;28;20512;-55
2021/10/30 07:44:49;;;;;;;25.03;11.30;;;8.50;99.90;;;;;;5047261;28;20961;-55
2021/10/30 07:47:16;;;;;;;19.47;11.07;;;9.00;99.90;;;;;;5049086;28;20449;-55
2021/10/30 07:49:43;;;;;;;19.20;10.80;;;9.60;99.90;;;;;;5035335;28;20489;-56
2021/10/30 07:52:11;;;;;;;18.60;11.43;;;10.10;99.90;;;;;;5041038;28;20545;-55
2021/10/30 07:54:39;;;;;;;18.47;10.40;;;10.50;99.90;;;;;;5044544;28;20467;-56
2021/10/30 07:57:08;;;;;;;16.00;10.00;;;10.70;99.90;;;;;;5052139;28;20541;-55
2021/10/30 07:59:36;;;;;;;13.90;9.00;;;10.90;99.90;;;;;;5041513;28;20518;-56
2021/10/30 08:02:04;;;;;;;15.30;8.37;;;11.10;99.90;;;;;;5043708;28;20553;-56
2021/10/30 08:04:32;;;;;;;8.83;4.57;;;11.40;99.90;;;;;;5053275;28;20924;-56
2021/10/30 08:06:58;;;;;;;9.47;4.80;;;11.60;99.90;;;;;;5039118;28;21330;-55
2021/10/30 08:09:26;;;;;;;7.57;4.00;;;11.80;99.90;;;;;;5048901;28;20516;-55
2021/10/30 08:11:52;;;;;;;13.43;4.67;;;12.00;99.90;;;;;;5051466;28;20541;-55
2021/10/30 08:14:21;;;;;;;6.10;4.50;;;12.40;99.90;;;;;;5047869;28;20463;-56
2021/10/30 08:16:48;;;;;;;9.20;5.53;;;12.80;99.90;;;;;;5044119;28;20527;-55
2021/10/30 08:19:15;;;;;;;7.17;4.13;;;13.10;99.90;;;;;;5052254;28;20881;-56
2021/10/30 08:21:42;;;;;;;6.63;4.00;;;13.40;99.90;;;;;;5046327;28;20471;-56
2021/10/30 08:24:09;;;;;;;8.77;5.60;;;13.40;99.90;;;;;;5044832;28;20451;-55
2021/10/30 08:26:36;;;;;;;13.20;5.90;;;13.60;99.90;;;;;;5051692;28;21006;-55
2021/10/30 08:29:03;;;;;;;6.00;3.70;;;13.70;99.90;;;;;;5044982;28;20974;-56
2021/10/30 08:31:32;;;;;;;7.00;2.80;;;14.00;99.90;;;;;;5049515;28;20459;-56
2021/10/30 08:33:59;;;;;;;4.63;2.57;;;14.20;99.90;;;;;;5043420;28;20472;-56
2021/10/30 08:36:26;;;;;;;8.20;2.90;;;14.40;99.90;;;;;;5043241;28;20495;-56
2021/10/30 08:38:53;;;;;;;5.77;3.60;;;14.30;99.90;;;;;;5050839;28;20468;-55
2021/10/30 08:41:20;;;;;;;9.40;3.63;;;14.40;99.90;;;;;;5045479;28;20465;-56
2021/10/30 08:43:48;;;;;;;5.53;3.63;;;14.40;99.90;;;;;;5048893;28;20491;-56
2021/10/30 08:46:16;;;;;;;6.90;2.00;;;14.60;99.90;;;;;;5037531;28;21026;-55
2021/10/30 08:48:45;;;;;;;13.73;3.67;;;14.90;99.90;;;;;;5044223;28;20448;-56
2021/10/30 08:51:12;;;;;;;5.03;3.23;;;15.30;99.90;;;;;;5049085;28;20463;-55
2021/10/30 08:53:40;;;;;;;10.77;2.30;;;15.80;99.90;;;;;;5041110;28;20484;-55
2021/10/30 08:56:08;;;;;;;4.20;1.60;;;16.10;99.90;;;;;;5046787;28;20468;-56
2021/10/30 08:58:36;;;;;;;9.47;2.30;;;16.40;99.90;;;;;;5040084;28;20449;-56
2021/10/30 09:01:08;;;;;;;3.50;1.67;;;16.70;99.90;;;;;;5035688;28;20459;-56
2021/10/30 09:03:36;;;;;;;2.90;1.70;;;16.90;99.90;;;;;;5046541;28;20545;-56
2021/10/30 09:06:05;;;;;;;2.43;1.77;;;17.10;99.90;;;;;;5049373;28;20938;-56
2021/10/30 09:08:34;;;;;;;7.43;1.93;;;17.30;99.90;;;;;;5037415;28;20517;-56
2021/10/30 09:11:06;;;;;;;2.70;1.60;;;17.60;99.90;;;;;;5048619;28;20476;-56
2021/10/30 09:13:33;;;;;;;3.87;1.60;;;18.00;99.90;;;;;;5049122;28;20533;-57
2021/10/30 09:16:01;;;;;;;3.43;1.67;;;18.30;99.90;;;;;;5044821;28;20467;-56
2021/10/30 09:18:30;;;;;;;5.90;2.00;;;18.10;99.90;;;;;;5050059;28;20525;-56
2021/10/30 09:21:12;;;;;;;3.30;1.80;;;18.00;99.90;;;;;;5048699;28;20467;-56
2021/10/30 09:23:42;;;;;;;9.77;1.70;;;17.80;99.90;;;;;;5047058;28;20858;-56
2021/10/30 09:26:16;;;;;;;3.97;1.60;;;17.80;99.90;;;;;;5031785;28;20441;-56
2021/10/30 09:28:47;;;;;;;2.37;1.40;;;18.00;99.90;;;;;;5037202;28;20827;-55
2021/10/30 09:31:16;;;;;;;3.67;1.83;;;18.00;99.90;;;;;;5048829;28;20533;-55
2021/10/30 09:33:51;;;;;;;4.50;2.07;;;18.10;99.90;;;;;;5040991;28;20487;-56
2021/10/30 09:36:18;;;;;;;4.10;2.30;;;18.00;99.90;;;;;;5039125;28;20463;-56
2021/10/30 09:38:53;;;;;;;5.27;2.10;;;18.10;99.90;;;;;;5040957;28;21113;-56
2021/10/30 09:41:22;;;;;;;2.80;2.20;;;18.30;99.90;;;;;;5049847;28;20463;-56
2021/10/30 09:43:56;;;;;;;6.47;2.33;;;18.30;99.90;;;;;;5047820;28;20545;-55
2021/10/30 09:46:24;;;;;;;6.53;2.10;;;18.40;99.90;;;;;;5039820;28;20533;-56
2021/10/30 09:48:52;;;;;;;3.57;1.97;;;18.40;99.90;;;;;;5038056;28;20878;-55
2021/10/30 09:51:34;;;;;;;3.83;2.20;;;18.30;99.90;;;;;;5048861;28;20459;-56
2021/10/30 09:54:06;;;;;;;3.87;2.10;;;18.20;99.90;;;;;;5044089;28;20471;-56
2021/10/30 09:56:41;;;;;;;2.70;1.70;;;18.30;99.90;;;;;;5047175;28;20851;-55
2021/10/30 09:59:09;;;;;;;5.70;2.50;;;18.20;99.90;;;;;;5050577;28;20977;-56
2021/10/30 10:01:37;;;;;;;3.97;2.13;;;18.30;99.90;;;;;;5051189;28;20448;-57
2021/10/30 10:04:05;;;;;;;9.70;1.97;;;18.30;99.90;;;;;;5049767;28;20495;-56
2021/10/30 10:06:33;;;;;;;6.80;2.00;;;18.20;99.90;;;;;;5049753;28;20541;-56
2021/10/30 10:09:03;;;;;;;5.53;2.10;;;18.30;99.90;;;;;;5049562;28;20533;-55
2021/10/30 10:11:32;;;;;;;2.10;1.87;;;18.40;99.90;;;;;;5043785;28;20468;-56
2021/10/30 10:14:00;;;;;;;4.80;1.83;;;18.40;99.90;;;;;;5050447;28;20460;-55
2021/10/30 10:16:27;;;;;;;6.40;1.90;;;18.50;99.90;;;;;;5044644;28;20562;-56
2021/10/30 10:18:55;;;;;;;4.87;2.67;;;18.50;99.90;;;;;;5049376;28;20472;-56
2021/10/30 10:21:26;;;;;;;3.27;1.97;;;18.40;99.90;;;;;;5044672;28;20953;-56
2021/10/30 10:23:54;;;;;;;3.50;1.80;;;18.30;99.90;;;;;;5047665;28;20530;-56
2021/10/30 10:26:32;;;;;;;2.80;2.17;;;18.50;99.30;;;;;;5047627;28;20517;-56
2021/10/30 10:29:03;;;;;;;2.67;1.60;;;18.60;99.60;;;;;;5041827;28;20471;-56
2021/10/30 10:31:30;;;;;;;1.60;1.50;;;18.60;99.90;;;;;;5041007;28;20478;-55
2021/10/30 10:34:08;;;;;;;4.10;1.60;;;18.50;99.90;;;;;;5042102;28;20473;-56
2021/10/30 10:36:37;;;;;;;6.53;1.77;;;18.40;99.70;;;;;;5043182;28;20479;-55
2021/10/30 10:39:22;;;;;;;5.57;1.70;;;18.40;99.70;;;;;;5042227;28;20468;-55
2021/10/30 10:41:59;;;;;;;5.80;1.80;;;18.40;99.90;;;;;;5044861;28;20463;-55
2021/10/30 10:45:00;;;;;;;3.13;1.83;;;18.30;99.00;;;;;;5041380;28;20483;-55
2021/10/30 10:47:59;;;;;;;2.03;1.37;;;18.30;99.70;;;;;;5042008;28;20466;-55
2021/10/30 10:50:30;;;;;;;3.10;1.70;;;18.30;98.80;;;;;;5040401;28;20574;-55
2021/10/30 10:53:18;;;;;;;6.03;1.70;;;18.50;98.00;;;;;;5043630;28;20483;-56
2021/10/30 10:56:06;;;;;;;5.07;1.97;;;18.30;98.10;;;;;;5040818;28;20969;-56
2021/10/30 10:59:04;;;;;;;3.33;1.67;;;18.30;98.40;;;;;;5042222;28;20520;-55
2021/10/30 11:01:34;;;;;;;4.07;1.50;;;18.30;98.30;;;;;;5041383;28;20460;-55
2021/10/30 11:04:16;;;;;;;3.13;1.80;;;18.10;99.30;;;;;;5040821;28;20494;-55
2021/10/30 11:06:45;;;;;;;1.40;1.30;;;18.00;98.70;;;;;;5040871;28;20525;-56
2021/10/30 11:09:17;;;;;;;3.43;1.63;;;18.00;98.00;;;;;;5047731;28;20455;-55
2021/10/30 11:11:45;;;;;;;1.40;1.30;;;18.20;97.60;;;;;;5044885;28;20513;-56
2021/10/30 11:14:14;;;;;;;3.20;1.60;;;18.30;97.60;;;;;;5045458;28;21023;-56
2021/10/30 11:16:46;;;;;;;4.63;1.60;;;18.20;98.20;;;;;;5047221;28;20459;-57
2021/10/30 11:19:32;;;;;;;3.47;1.57;;;18.10;98.10;;;;;;5045423;28;20455;-56
2021/10/30 11:22:14;;;;;;;4.63;1.60;;;18.00;98.10;;;;;;5045999;28;20489;-55
2021/10/30 11:24:53;;;;;;;3.60;1.30;;;18.00;97.80;;;;;;5049385;28;20529;-51
2021/10/30 11:27:20;;;;;;;2.70;1.50;;;18.00;97.80;;;;;;5053503;28;20456;-55
2021/10/30 11:29:53;;;;;;;3.10;1.30;;;18.10;97.90;;;;;;5043419;28;20872;-55
2021/10/30 11:32:21;;;;;;;1.57;1.47;;;18.10;97.40;;;;;;5038821;28;20903;-54
2021/10/30 11:34:56;;;;;;;4.03;1.30;;;18.20;97.10;;;;;;5042071;28;20448;-55
2021/10/30 11:37:23;;;;;;;2.73;1.60;;;18.20;96.90;;;;;;5034443;28;20455;-55
2021/10/30 11:39:51;;;;;;;3.97;1.50;;;18.30;97.70;;;;;;5034336;28;20582;-55
2021/10/30 11:42:18;;;;;;;2.90;1.60;;;18.30;97.20;;;;;;5040123;28;20844;-55
2021/10/30 11:44:56;;;;;;;1.97;1.70;;;18.30;97.20;;;;;;5054048;28;21030;-55
2021/10/30 11:47:30;;;;;;;3.93;1.90;;;18.20;97.40;;;;;;5053991;28;20447;-54
2021/10/30 11:49:59;;;;;;;2.50;1.73;;;18.10;97.60;;;;;;5054060;28;20501;-56
2021/10/30 11:52:28;;;;;;;2.47;1.63;;;17.90;98.50;;;;;;5053430;28;20479;-55
2021/10/30 11:55:00;;;;;;;1.97;1.50;;;17.80;98.70;;;;;;5054100;28;20505;-56
2021/10/30 11:57:28;;;;;;;3.67;1.70;;;17.60;99.10;;;;;;5049939;28;21012;-55
2021/10/30 12:00:00;;;;;;;4.20;1.77;;;17.50;98.90;;;;;;5040675;28;20506;-55
2021/10/30 12:02:27;;;;;;;2.20;1.60;;;17.40;99.20;;;;;;5033596;28;20480;-55
2021/10/30 12:04:56;;;;;;;3.27;1.77;;;17.30;99.90;;;;;;5033632;28;20488;-56
2021/10/30 12:07:24;;;;;;;9.40;1.90;;;17.30;99.90;;;;;;5034160;28;20538;-55
2021/10/30 12:09:51;;;;;;;4.80;1.83;;;17.30;99.90;;;;;;5033758;28;20487;-55
2021/10/30 12:12:23;;;;;;;5.20;1.73;;;17.20;99.90;;;;;;5033460;28;20525;-55
2021/10/30 12:14:51;;;;;;;2.87;1.67;;;17.20;99.60;;;;;;5038038;28;20457;-54
2021/10/30 12:17:23;;;;;;;3.00;1.73;;;17.20;99.30;;;;;;5053351;28;20444;-55
2021/10/30 12:19:56;;;;;;;2.83;1.33;;;17.40;99.00;;;;;;5051702;28;20456;-55
2021/10/30 12:22:25;;;;;;;1.53;1.13;;;17.50;98.70;;;;;;5046292;28;20476;-55
2021/10/30 12:25:00;;;;;;;6.57;1.40;;;17.40;98.90;;;;;;5043733;28;20529;-55
2021/10/30 12:27:27;;;;;;;3.77;2.53;;;17.30;98.40;;;;;;5053378;28;20534;-55
2021/10/30 12:29:54;;;;;;;2.17;1.47;;;17.30;98.40;;;;;;5053105;28;20443;-55
2021/10/30 12:32:24;;;;;;;5.80;2.60;;;17.40;98.40;;;;;;5052518;28;20471;-55
2021/10/30 12:34:58;;;;;;;1.80;1.30;;;17.30;99.10;;;;;;5053277;28;20443;-55
2021/10/30 12:37:26;;;;;;;2.90;1.30;;;17.20;98.50;;;;;;5053138;28;20505;-54
2021/10/30 12:39:57;;;;;;;1.70;1.23;;;17.30;98.00;;;;;;5053066;28;20452;-55
2021/10/30 12:42:24;;;;;;;1.83;1.43;;;17.40;97.50;;;;;;5052964;28;20467;-54
2021/10/30 12:44:52;;;;;;;1.30;1.20;;;17.40;98.00;;;;;;5052929;28;20487;-54
2021/10/30 12:47:25;;;;;;;5.63;1.17;;;17.40;97.60;;;;;;5052678;28;20451;-55
2021/10/30 12:49:56;;;;;;;2.33;1.60;;;17.40;97.50;;;;;;5052977;28;20501;-54